Syosyun — JD2406 — position and weather

sailwx.info

Track history (hours):
 
Tides and Currents Weather Stations Pressure Air Temp Water Temp Dewpoint Dewpoint Depression Visibility Wind Speed Wind Dir Waves Ship Positions

Syosyun

Last reported at 2018-Feb-25 02:48 UTC. Time now 2018-Feb-25 22:03 UTC.
Position N 35°09' E 138°42'.

Length 74 m; draft 4.2 m.

Type: Cargo ship. MMSI: 431000201.

Date/timePositionNaut miles runAvg speedWind from/ knotsBaromVisibWave heightAir tempDewpointWater temp
2018-Feb-25 02:48N 35°09' E 138°42'0 0.0
2018-Feb-25 02:30N 35°09' E 138°42'0 0.0
2018-Feb-25 01:48N 35°09' E 138°42'0 0.0
2018-Feb-25 01:30N 35°09' E 138°42'0 0.0
2018-Feb-25 00:56N 35°09' E 138°42'0 0.2
2018-Feb-25 00:31N 35°09' E 138°42'4 8.0
2018-Feb-25 00:00N 35°05' E 138°40'5 9.7
2018-Feb-24 23:30N 35°01' E 138°37'5 9.8
2018-Feb-24 23:00N 34°57' E 138°33'510.4
2018-Feb-24 22:30N 34°52' E 138°30'510.6
2018-Feb-24 22:00N 34°48' E 138°26'510.2
2018-Feb-24 21:30N 34°44' E 138°23'610.3
2018-Feb-24 20:58N 34°39' E 138°19'510.5
2018-Feb-24 20:30N 34°35' E 138°16'165 8.9
2018-Feb-24 01:56N 33°48' E 135°05'510.2
2018-Feb-24 01:27N 33°51' E 135°01'510.4
2018-Feb-24 01:00N 33°55' E 134°58'510.5
2018-Feb-24 00:30N 33°59' E 134°54'510.8
2018-Feb-24 00:00N 34°03' E 134°50'610.9
2018-Feb-23 23:30N 34°07' E 134°45'510.7
2018-Feb-23 23:00N 34°12' E 134°42'510.7
2018-Feb-23 22:30N 34°16' E 134°39'510.2
2018-Feb-23 22:01N 34°21' E 134°39'510.0
2018-Feb-23 21:31N 34°26' E 134°40'510.0
2018-Feb-23 21:00N 34°31' E 134°41'5 9.9
2018-Feb-23 20:30N 34°36' E 134°43'510.0
2018-Feb-23 20:00N 34°40' E 134°47'4 0.2
2018-Feb-23 00:09N 34°43' E 134°48'1 5.1
2018-Feb-23 00:00N 34°42' E 134°48'4 7.4
2018-Feb-22 23:30N 34°39' E 134°47'0 0.0
2018-Feb-22 22:58N 34°39' E 134°47'0 0.0
2018-Feb-22 22:22N 34°39' E 134°47'0 0.0
2018-Feb-22 21:58N 34°39' E 134°47'0 0.0
2018-Feb-22 21:28N 34°39' E 134°47'0 0.0
2018-Feb-22 20:40N 34°39' E 134°47'0 0.0
2018-Feb-22 20:28N 34°39' E 134°47'0 0.0
2018-Feb-22 19:52N 34°39' E 134°47'0 0.0
2018-Feb-22 19:28N 34°39' E 134°47'0 0.1
2018-Feb-22 18:58N 34°39' E 134°47'0 0.0
2018-Feb-22 18:28N 34°39' E 134°47'0 0.0
2018-Feb-22 17:58N 34°39' E 134°47'0 0.1
2018-Feb-22 17:28N 34°39' E 134°47'0 0.0
2018-Feb-22 16:58N 34°39' E 134°47'0 0.1
2018-Feb-22 16:30N 34°39' E 134°47'3 6.5
2018-Feb-22 16:00N 34°37' E 134°44'510.7
2018-Feb-22 15:31N 34°32' E 134°42'510.9
2018-Feb-22 15:00N 34°27' E 134°41'510.8
2018-Feb-22 14:30N 34°21' E 134°39'611.7
2018-Feb-22 13:59N 34°15' E 134°39'812.2
2018-Feb-22 13:22N 34°09' E 134°44'411.0
2018-Feb-22 13:00N 34°06' E 134°47'611.1
2018-Feb-22 12:28N 34°01' E 134°51'511.2
2018-Feb-22 12:00N 33°57' E 134°55'611.3
2018-Feb-22 11:30N 33°53' E 134°60'162 9.2
2018-Feb-21 17:51N 34°32' E 138°09'3 8.9
2018-Feb-21 17:28N 34°33' E 138°13'11 9.5
2018-Feb-21 16:21N 34°34' E 138°26'5 9.7
2018-Feb-21 15:47N 34°34' E 138°33'3 9.5
2018-Feb-21 15:29N 34°35' E 138°36'10 9.7
2018-Feb-21 14:24N 34°35' E 138°49'5 9.4
2018-Feb-21 13:54N 34°35' E 138°55'410.0
2018-Feb-21 13:28N 34°37' E 138°59'611.2
2018-Feb-21 12:53N 34°43' E 139°04'511.2
2018-Feb-21 12:27N 34°47' E 139°07'810.1
2018-Feb-21 11:43N 34°53' E 139°13'410.1
2018-Feb-21 11:19N 34°55' E 139°17'510.0
2018-Feb-21 10:49N 34°58' E 139°22'3 9.9
2018-Feb-21 10:30N 34°59' E 139°25'510.3
2018-Feb-21 10:00N 35°02' E 139°31'510.8
2018-Feb-21 09:30N 35°05' E 139°36'611.3
2018-Feb-21 09:00N 35°08' E 139°42'511.0
2018-Feb-21 08:31N 35°12' E 139°46'510.0
2018-Feb-21 08:01N 35°17' E 139°45'510.3
2018-Feb-21 07:31N 35°22' E 139°42'510.1
2018-Feb-21 07:00N 35°26' E 139°45'510.9
2018-Feb-21 06:30N 35°29' E 139°51'510.8
2018-Feb-21 06:00N 35°34' E 139°55'7 0.3
2018-Feb-20 07:59N 35°41' E 139°58'3 6.7
2018-Feb-20 07:29N 35°37' E 139°58'510.9
2018-Feb-20 07:00N 35°33' E 139°55'611.1
2018-Feb-20 06:31N 35°28' E 139°51'510.5
2018-Feb-20 06:00N 35°27' E 139°45'3 6.2
2018-Feb-20 05:28N 35°27' E 139°41'0 0.0
2018-Feb-20 04:58N 35°27' E 139°41'0 0.0
2018-Feb-20 04:28N 35°27' E 139°41'0 0.0
2018-Feb-20 03:55N 35°27' E 139°41'0 0.0
2018-Feb-20 03:28N 35°27' E 139°41'0 0.0
2018-Feb-20 02:58N 35°27' E 139°41'0 0.0
2018-Feb-20 02:28N 35°27' E 139°41'0 0.0
2018-Feb-20 01:59N 35°27' E 139°41'1 1.9
2018-Feb-20 01:30N 35°27' E 139°41'1 1.1
2018-Feb-20 01:00N 35°27' E 139°42'0 0.0
2018-Feb-20 00:30N 35°27' E 139°42'0 0.0
2018-Feb-20 00:00N 35°27' E 139°42'0 0.1
2018-Feb-19 23:30N 35°27' E 139°42'0 0.0
2018-Feb-19 23:00N 35°27' E 139°42'0 0.0
2018-Feb-19 22:30N 35°27' E 139°42'0 0.0
2018-Feb-19 22:00N 35°27' E 139°42'0 0.0
2018-Feb-19 21:30N 35°27' E 139°42'0 0.1
2018-Feb-19 21:00N 35°27' E 139°42'0 0.0
2018-Feb-19 20:30N 35°27' E 139°42'0 0.0
2018-Feb-19 20:00N 35°27' E 139°42'0 0.0
2018-Feb-19 19:30N 35°27' E 139°42'0 0.0
2018-Feb-19 19:00N 35°27' E 139°42'0 0.0
2018-Feb-19 18:30N 35°27' E 139°42'0 0.0
2018-Feb-19 18:00N 35°27' E 139°42'0 0.1
2018-Feb-19 17:30N 35°27' E 139°42'0 0.0
2018-Feb-19 17:00N 35°27' E 139°42'0 0.0
2018-Feb-19 16:30N 35°27' E 139°42'0 0.0
2018-Feb-19 16:00N 35°27' E 139°42'0 0.0
2018-Feb-19 15:30N 35°27' E 139°42'0 0.1
2018-Feb-19 15:00N 35°27' E 139°42'0 0.0
2018-Feb-19 14:30N 35°27' E 139°42'0 0.0
2018-Feb-19 14:00N 35°27' E 139°42'0 0.0
2018-Feb-19 13:30N 35°27' E 139°42'0 0.0
2018-Feb-19 13:00N 35°27' E 139°42'0 0.0
2018-Feb-19 12:30N 35°27' E 139°42'0 0.0
2018-Feb-19 12:00N 35°27' E 139°42'0 0.0
2018-Feb-19 11:27N 35°27' E 139°42'0 0.0
2018-Feb-19 11:00N 35°27' E 139°42'0 0.1
2018-Feb-19 10:30N 35°27' E 139°42'0 0.1
2018-Feb-19 10:00N 35°27' E 139°42'0 0.1
2018-Feb-19 09:30N 35°27' E 139°42'0 0.0
2018-Feb-19 09:00N 35°27' E 139°42'0 0.1
2018-Feb-19 08:25N 35°27' E 139°42'0 0.0
2018-Feb-19 07:58N 35°27' E 139°42'0 0.0
2018-Feb-19 07:28N 35°27' E 139°42'0 0.0
2018-Feb-19 06:58N 35°27' E 139°42'0 0.0
2018-Feb-19 06:28N 35°27' E 139°42'0 0.0
2018-Feb-19 05:58N 35°27' E 139°42'0 0.0
2018-Feb-19 05:28N 35°27' E 139°42'0 0.0
2018-Feb-19 04:58N 35°27' E 139°42'0 0.0
2018-Feb-19 04:28N 35°27' E 139°42'0 0.0
2018-Feb-19 03:58N 35°27' E 139°42'0 0.0
2018-Feb-19 03:28N 35°27' E 139°42'0 0.0
2018-Feb-19 02:58N 35°27' E 139°42'0 0.0
2018-Feb-19 02:28N 35°27' E 139°42'0 0.1
2018-Feb-19 01:58N 35°27' E 139°42'0 0.0
2018-Feb-19 01:28N 35°27' E 139°42'0 0.0
2018-Feb-19 00:58N 35°27' E 139°42'0 0.0
2018-Feb-19 00:28N 35°27' E 139°42'0 0.0
2018-Feb-18 23:58N 35°27' E 139°42'0 0.0
2018-Feb-18 23:28N 35°27' E 139°42'1 1.1
2018-Feb-18 23:00N 35°26' E 139°42'5 9.8
2018-Feb-18 22:30N 35°21' E 139°43'510.2
2018-Feb-18 22:00N 35°17' E 139°46'510.1
2018-Feb-18 21:30N 35°12' E 139°47'510.2
2018-Feb-18 21:00N 35°07' E 139°45'510.0
2018-Feb-18 20:30N 35°03' E 139°42'610.1
2018-Feb-18 19:57N 34°59' E 139°37'1310.4
2018-Feb-18 18:41N 34°52' E 139°23'711.4
2018-Feb-18 18:05N 34°48' E 139°17'111.2
2018-Feb-18 18:00N 34°47' E 139°16'911.5
2018-Feb-18 17:14N 34°42' E 139°08'310.7
2018-Feb-18 16:58N 34°40' E 139°05'511.1
2018-Feb-18 16:30N 34°37' E 138°60'711.1
2018-Feb-18 15:52N 34°35' E 138°51'810.2
2018-Feb-18 15:07N 34°35' E 138°42'210.5
2018-Feb-18 14:55N 34°35' E 138°40'910.8
2018-Feb-18 14:04N 34°34' E 138°28'174 9.0
2018-Feb-17 18:41N 33°48' E 135°05'311.5
2018-Feb-17 18:27N 33°50' E 135°03'511.4
2018-Feb-17 18:00N 33°54' E 134°59'611.0
2018-Feb-17 17:30N 33°58' E 134°55'611.2
2018-Feb-17 16:59N 34°02' E 134°51'511.3
2018-Feb-17 16:30N 34°07' E 134°46'712.0
2018-Feb-17 15:56N 34°12' E 134°41'511.9
2018-Feb-17 15:30N 34°16' E 134°38'611.2
2018-Feb-17 15:00N 34°22' E 134°39'510.8
2018-Feb-17 14:30N 34°27' E 134°40'510.9
2018-Feb-17 14:00N 34°33' E 134°41'510.6
2018-Feb-17 13:30N 34°37' E 134°44'510.4
2018-Feb-17 13:00N 34°42' E 134°48'2 0.1
2018-Feb-16 22:28N 34°44' E 134°49'2 4.4
2018-Feb-16 22:00N 34°42' E 134°50'1 0.9
2018-Feb-16 21:26N 34°42' E 134°50'0 0.0
2018-Feb-16 20:56N 34°42' E 134°50'0 0.0
2018-Feb-16 20:26N 34°42' E 134°50'0 0.0
2018-Feb-16 19:56N 34°42' E 134°50'0 0.0
2018-Feb-16 19:26N 34°42' E 134°50'0 0.0
2018-Feb-16 18:56N 34°42' E 134°50'0 0.0
2018-Feb-16 18:26N 34°42' E 134°50'0 0.1
2018-Feb-16 17:59N 34°42' E 134°50'0 0.1
2018-Feb-16 17:26N 34°42' E 134°50'0 0.0
2018-Feb-16 16:56N 34°42' E 134°50'0 0.1
2018-Feb-16 16:20N 34°42' E 134°50'0 0.1
2018-Feb-16 15:44N 34°42' E 134°50'0 0.0
2018-Feb-16 15:26N 34°42' E 134°50'0 0.1
2018-Feb-16 14:56N 34°42' E 134°50'0 0.0
2018-Feb-16 14:20N 34°42' E 134°50'0 0.1
2018-Feb-16 13:56N 34°42' E 134°50'0 0.0
2018-Feb-16 13:26N 34°42' E 134°50'0 0.0
2018-Feb-16 12:59N 34°42' E 134°50'0 0.0
2018-Feb-16 12:20N 34°42' E 134°50'0 0.0
2018-Feb-16 11:38N 34°42' E 134°50'0 0.1
2018-Feb-16 11:26N 34°42' E 134°50'0 0.0
2018-Feb-16 10:59N 34°42' E 134°50'0 0.0
2018-Feb-16 10:26N 34°42' E 134°50'0 0.1
2018-Feb-16 10:00N 34°42' E 134°50'4 8.7
2018-Feb-16 09:30N 34°38' E 134°52'611.3
2018-Feb-16 09:00N 34°38' E 134°59'510.0
2018-Feb-16 08:31N 34°36' E 135°04'611.2
2018-Feb-16 08:01N 34°36' E 135°11'611.1
2018-Feb-16 07:30N 34°36' E 135°18'510.7
2018-Feb-16 07:00N 34°39' E 135°24'2 4.2
2018-Feb-16 06:28N 34°40' E 135°25'0 0.0
2018-Feb-16 05:58N 34°40' E 135°25'0 0.0
2018-Feb-16 05:28N 34°40' E 135°25'0 0.0
2018-Feb-16 04:52N 34°40' E 135°25'0 0.0
2018-Feb-16 04:28N 34°40' E 135°25'0 0.0
2018-Feb-16 03:58N 34°40' E 135°25'0 0.0
2018-Feb-16 03:28N 34°40' E 135°25'0 0.0
2018-Feb-16 02:58N 34°40' E 135°25'0 0.0
2018-Feb-16 02:28N 34°40' E 135°25'0 0.0
2018-Feb-16 01:58N 34°40' E 135°25'0 0.0
2018-Feb-16 01:28N 34°40' E 135°25'0 0.0
2018-Feb-16 00:58N 34°40' E 135°25'0 0.0
2018-Feb-16 00:28N 34°40' E 135°25'3 6.9
2018-Feb-16 00:01N 34°38' E 135°23'510.4
2018-Feb-15 23:31N 34°36' E 135°17'510.4
2018-Feb-15 23:01N 34°35' E 135°11'510.4
2018-Feb-15 22:30N 34°35' E 135°04'4 7.4
2018-Feb-15 22:00N 34°37' E 135°01'4 8.2
2018-Feb-15 21:30N 34°36' E 134°56'5 9.1
2018-Feb-15 21:00N 34°38' E 134°51'5 9.1
2018-Feb-15 20:30N 34°42' E 134°48'1 0.1
2018-Feb-15 11:01N 34°43' E 134°48'0 7.2
2018-Feb-15 11:00N 34°43' E 134°48'5 9.0
2018-Feb-15 10:30N 34°43' E 134°43'0 0.1
2018-Feb-15 07:42N 34°43' E 134°43'0 0.0
2018-Feb-15 07:15N 34°43' E 134°43'0 0.0
2018-Feb-15 06:57N 34°43' E 134°43'0 0.0
2018-Feb-15 06:21N 34°43' E 134°43'0 0.0
2018-Feb-15 05:51N 34°43' E 134°43'0 0.0
2018-Feb-15 05:21N 34°43' E 134°43'0 0.0
2018-Feb-15 04:15N 34°43' E 134°43'0 0.0
2018-Feb-15 03:57N 34°43' E 134°43'0 0.0
2018-Feb-15 03:27N 34°43' E 134°43'0 0.0
2018-Feb-15 02:57N 34°43' E 134°43'  
Track history (hours):
 
Tides and Currents Weather Stations Pressure Air Temp Water Temp Dewpoint Dewpoint Depression Visibility Wind Speed Wind Dir Waves Ship Positions

Syosyun

Last reported at 2018-Feb-25 02:48 UTC. Time now 2018-Feb-25 22:03 UTC.
Position N 35°09' E 138°42'.

Length 74 m; draft 4.2 m.

Type: Cargo ship. MMSI: 431000201.

Date/timePositionNaut miles runAvg speedWind from/ knotsBaromVisibWave heightAir tempDewpointWater temp
2018-Feb-25 02:48N 35°09' E 138°42'0 0.0
2018-Feb-25 02:30N 35°09' E 138°42'0 0.0
2018-Feb-25 01:48N 35°09' E 138°42'0 0.0
2018-Feb-25 01:30N 35°09' E 138°42'0 0.0
2018-Feb-25 00:56N 35°09' E 138°42'0 0.2
2018-Feb-25 00:31N 35°09' E 138°42'4 8.0
2018-Feb-25 00:00N 35°05' E 138°40'5 9.7
2018-Feb-24 23:30N 35°01' E 138°37'5 9.8
2018-Feb-24 23:00N 34°57' E 138°33'510.4
2018-Feb-24 22:30N 34°52' E 138°30'510.6
2018-Feb-24 22:00N 34°48' E 138°26'510.2
2018-Feb-24 21:30N 34°44' E 138°23'610.3
2018-Feb-24 20:58N 34°39' E 138°19'510.5
2018-Feb-24 20:30N 34°35' E 138°16'165 8.9
2018-Feb-24 01:56N 33°48' E 135°05'510.2
2018-Feb-24 01:27N 33°51' E 135°01'510.4
2018-Feb-24 01:00N 33°55' E 134°58'510.5
2018-Feb-24 00:30N 33°59' E 134°54'510.8
2018-Feb-24 00:00N 34°03' E 134°50'610.9
2018-Feb-23 23:30N 34°07' E 134°45'510.7
2018-Feb-23 23:00N 34°12' E 134°42'510.7
2018-Feb-23 22:30N 34°16' E 134°39'510.2
2018-Feb-23 22:01N 34°21' E 134°39'510.0
2018-Feb-23 21:31N 34°26' E 134°40'510.0
2018-Feb-23 21:00N 34°31' E 134°41'5 9.9
2018-Feb-23 20:30N 34°36' E 134°43'510.0
2018-Feb-23 20:00N 34°40' E 134°47'4 0.2
2018-Feb-23 00:09N 34°43' E 134°48'1 5.1
2018-Feb-23 00:00N 34°42' E 134°48'4 7.4
2018-Feb-22 23:30N 34°39' E 134°47'0 0.0
2018-Feb-22 22:58N 34°39' E 134°47'0 0.0
2018-Feb-22 22:22N 34°39' E 134°47'0 0.0
2018-Feb-22 21:58N 34°39' E 134°47'0 0.0
2018-Feb-22 21:28N 34°39' E 134°47'0 0.0
2018-Feb-22 20:40N 34°39' E 134°47'0 0.0
2018-Feb-22 20:28N 34°39' E 134°47'0 0.0
2018-Feb-22 19:52N 34°39' E 134°47'0 0.0
2018-Feb-22 19:28N 34°39' E 134°47'0 0.1
2018-Feb-22 18:58N 34°39' E 134°47'0 0.0
2018-Feb-22 18:28N 34°39' E 134°47'0 0.0
2018-Feb-22 17:58N 34°39' E 134°47'0 0.1
2018-Feb-22 17:28N 34°39' E 134°47'0 0.0
2018-Feb-22 16:58N 34°39' E 134°47'0 0.1
2018-Feb-22 16:30N 34°39' E 134°47'3 6.5
2018-Feb-22 16:00N 34°37' E 134°44'510.7
2018-Feb-22 15:31N 34°32' E 134°42'510.9
2018-Feb-22 15:00N 34°27' E 134°41'510.8
2018-Feb-22 14:30N 34°21' E 134°39'611.7
2018-Feb-22 13:59N 34°15' E 134°39'812.2
2018-Feb-22 13:22N 34°09' E 134°44'411.0
2018-Feb-22 13:00N 34°06' E 134°47'611.1
2018-Feb-22 12:28N 34°01' E 134°51'511.2
2018-Feb-22 12:00N 33°57' E 134°55'611.3
2018-Feb-22 11:30N 33°53' E 134°60'162 9.2
2018-Feb-21 17:51N 34°32' E 138°09'3 8.9
2018-Feb-21 17:28N 34°33' E 138°13'11 9.5
2018-Feb-21 16:21N 34°34' E 138°26'5 9.7
2018-Feb-21 15:47N 34°34' E 138°33'3 9.5
2018-Feb-21 15:29N 34°35' E 138°36'10 9.7
2018-Feb-21 14:24N 34°35' E 138°49'5 9.4
2018-Feb-21 13:54N 34°35' E 138°55'410.0
2018-Feb-21 13:28N 34°37' E 138°59'611.2
2018-Feb-21 12:53N 34°43' E 139°04'511.2
2018-Feb-21 12:27N 34°47' E 139°07'810.1
2018-Feb-21 11:43N 34°53' E 139°13'410.1
2018-Feb-21 11:19N 34°55' E 139°17'510.0
2018-Feb-21 10:49N 34°58' E 139°22'3 9.9
2018-Feb-21 10:30N 34°59' E 139°25'510.3
2018-Feb-21 10:00N 35°02' E 139°31'510.8
2018-Feb-21 09:30N 35°05' E 139°36'611.3
2018-Feb-21 09:00N 35°08' E 139°42'511.0
2018-Feb-21 08:31N 35°12' E 139°46'510.0
2018-Feb-21 08:01N 35°17' E 139°45'510.3
2018-Feb-21 07:31N 35°22' E 139°42'510.1
2018-Feb-21 07:00N 35°26' E 139°45'510.9
2018-Feb-21 06:30N 35°29' E 139°51'510.8
2018-Feb-21 06:00N 35°34' E 139°55'7 0.3
2018-Feb-20 07:59N 35°41' E 139°58'3 6.7
2018-Feb-20 07:29N 35°37' E 139°58'510.9
2018-Feb-20 07:00N 35°33' E 139°55'611.1
2018-Feb-20 06:31N 35°28' E 139°51'510.5
2018-Feb-20 06:00N 35°27' E 139°45'3 6.2
2018-Feb-20 05:28N 35°27' E 139°41'0 0.0
2018-Feb-20 04:58N 35°27' E 139°41'0 0.0
2018-Feb-20 04:28N 35°27' E 139°41'0 0.0
2018-Feb-20 03:55N 35°27' E 139°41'0 0.0
2018-Feb-20 03:28N 35°27' E 139°41'0 0.0
2018-Feb-20 02:58N 35°27' E 139°41'0 0.0
2018-Feb-20 02:28N 35°27' E 139°41'0 0.0
2018-Feb-20 01:59N 35°27' E 139°41'1 1.9
2018-Feb-20 01:30N 35°27' E 139°41'1 1.1
2018-Feb-20 01:00N 35°27' E 139°42'0 0.0
2018-Feb-20 00:30N 35°27' E 139°42'0 0.0
2018-Feb-20 00:00N 35°27' E 139°42'0 0.1
2018-Feb-19 23:30N 35°27' E 139°42'0 0.0
2018-Feb-19 23:00N 35°27' E 139°42'0 0.0
2018-Feb-19 22:30N 35°27' E 139°42'0 0.0
2018-Feb-19 22:00N 35°27' E 139°42'0 0.0
2018-Feb-19 21:30N 35°27' E 139°42'0 0.1
2018-Feb-19 21:00N 35°27' E 139°42'0 0.0
2018-Feb-19 20:30N 35°27' E 139°42'0 0.0
2018-Feb-19 20:00N 35°27' E 139°42'0 0.0
2018-Feb-19 19:30N 35°27' E 139°42'0 0.0
2018-Feb-19 19:00N 35°27' E 139°42'0 0.0
2018-Feb-19 18:30N 35°27' E 139°42'0 0.0
2018-Feb-19 18:00N 35°27' E 139°42'0 0.1
2018-Feb-19 17:30N 35°27' E 139°42'0 0.0
2018-Feb-19 17:00N 35°27' E 139°42'0 0.0
2018-Feb-19 16:30N 35°27' E 139°42'0 0.0
2018-Feb-19 16:00N 35°27' E 139°42'0 0.0
2018-Feb-19 15:30N 35°27' E 139°42'0 0.1
2018-Feb-19 15:00N 35°27' E 139°42'0 0.0
2018-Feb-19 14:30N 35°27' E 139°42'0 0.0
2018-Feb-19 14:00N 35°27' E 139°42'0 0.0
2018-Feb-19 13:30N 35°27' E 139°42'0 0.0
2018-Feb-19 13:00N 35°27' E 139°42'0 0.0
2018-Feb-19 12:30N 35°27' E 139°42'0 0.0
2018-Feb-19 12:00N 35°27' E 139°42'0 0.0
2018-Feb-19 11:27N 35°27' E 139°42'0 0.0
2018-Feb-19 11:00N 35°27' E 139°42'0 0.1
2018-Feb-19 10:30N 35°27' E 139°42'0 0.1
2018-Feb-19 10:00N 35°27' E 139°42'0 0.1
2018-Feb-19 09:30N 35°27' E 139°42'0 0.0
2018-Feb-19 09:00N 35°27' E 139°42'0 0.1
2018-Feb-19 08:25N 35°27' E 139°42'0 0.0
2018-Feb-19 07:58N 35°27' E 139°42'0 0.0
2018-Feb-19 07:28N 35°27' E 139°42'0 0.0
2018-Feb-19 06:58N 35°27' E 139°42'0 0.0
2018-Feb-19 06:28N 35°27' E 139°42'0 0.0
2018-Feb-19 05:58N 35°27' E 139°42'0 0.0
2018-Feb-19 05:28N 35°27' E 139°42'0 0.0
2018-Feb-19 04:58N 35°27' E 139°42'0 0.0
2018-Feb-19 04:28N 35°27' E 139°42'0 0.0
2018-Feb-19 03:58N 35°27' E 139°42'0 0.0
2018-Feb-19 03:28N 35°27' E 139°42'0 0.0
2018-Feb-19 02:58N 35°27' E 139°42'0 0.0
2018-Feb-19 02:28N 35°27' E 139°42'0 0.1
2018-Feb-19 01:58N 35°27' E 139°42'0 0.0
2018-Feb-19 01:28N 35°27' E 139°42'0 0.0
2018-Feb-19 00:58N 35°27' E 139°42'0 0.0
2018-Feb-19 00:28N 35°27' E 139°42'0 0.0
2018-Feb-18 23:58N 35°27' E 139°42'0 0.0
2018-Feb-18 23:28N 35°27' E 139°42'1 1.1
2018-Feb-18 23:00N 35°26' E 139°42'5 9.8
2018-Feb-18 22:30N 35°21' E 139°43'510.2
2018-Feb-18 22:00N 35°17' E 139°46'510.1
2018-Feb-18 21:30N 35°12' E 139°47'510.2
2018-Feb-18 21:00N 35°07' E 139°45'510.0
2018-Feb-18 20:30N 35°03' E 139°42'610.1
2018-Feb-18 19:57N 34°59' E 139°37'1310.4
2018-Feb-18 18:41N 34°52' E 139°23'711.4
2018-Feb-18 18:05N 34°48' E 139°17'111.2
2018-Feb-18 18:00N 34°47' E 139°16'911.5
2018-Feb-18 17:14N 34°42' E 139°08'310.7
2018-Feb-18 16:58N 34°40' E 139°05'511.1
2018-Feb-18 16:30N 34°37' E 138°60'711.1
2018-Feb-18 15:52N 34°35' E 138°51'810.2
2018-Feb-18 15:07N 34°35' E 138°42'210.5
2018-Feb-18 14:55N 34°35' E 138°40'910.8
2018-Feb-18 14:04N 34°34' E 138°28'174 9.0
2018-Feb-17 18:41N 33°48' E 135°05'311.5
2018-Feb-17 18:27N 33°50' E 135°03'511.4
2018-Feb-17 18:00N 33°54' E 134°59'611.0
2018-Feb-17 17:30N 33°58' E 134°55'611.2
2018-Feb-17 16:59N 34°02' E 134°51'511.3
2018-Feb-17 16:30N 34°07' E 134°46'712.0
2018-Feb-17 15:56N 34°12' E 134°41'511.9
2018-Feb-17 15:30N 34°16' E 134°38'611.2
2018-Feb-17 15:00N 34°22' E 134°39'510.8
2018-Feb-17 14:30N 34°27' E 134°40'510.9
2018-Feb-17 14:00N 34°33' E 134°41'510.6
2018-Feb-17 13:30N 34°37' E 134°44'510.4
2018-Feb-17 13:00N 34°42' E 134°48'2 0.1
2018-Feb-16 22:28N 34°44' E 134°49'2 4.4
2018-Feb-16 22:00N 34°42' E 134°50'1 0.9
2018-Feb-16 21:26N 34°42' E 134°50'0 0.0
2018-Feb-16 20:56N 34°42' E 134°50'0 0.0
2018-Feb-16 20:26N 34°42' E 134°50'0 0.0
2018-Feb-16 19:56N 34°42' E 134°50'0 0.0
2018-Feb-16 19:26N 34°42' E 134°50'0 0.0
2018-Feb-16 18:56N 34°42' E 134°50'0 0.0
2018-Feb-16 18:26N 34°42' E 134°50'0 0.1
2018-Feb-16 17:59N 34°42' E 134°50'0 0.1
2018-Feb-16 17:26N 34°42' E 134°50'0 0.0
2018-Feb-16 16:56N 34°42' E 134°50'0 0.1
2018-Feb-16 16:20N 34°42' E 134°50'0 0.1
2018-Feb-16 15:44N 34°42' E 134°50'0 0.0
2018-Feb-16 15:26N 34°42' E 134°50'0 0.1
2018-Feb-16 14:56N 34°42' E 134°50'0 0.0
2018-Feb-16 14:20N 34°42' E 134°50'0 0.1
2018-Feb-16 13:56N 34°42' E 134°50'0 0.0
2018-Feb-16 13:26N 34°42' E 134°50'0 0.0
2018-Feb-16 12:59N 34°42' E 134°50'0 0.0
2018-Feb-16 12:20N 34°42' E 134°50'0 0.0
2018-Feb-16 11:38N 34°42' E 134°50'0 0.1
2018-Feb-16 11:26N 34°42' E 134°50'0 0.0
2018-Feb-16 10:59N 34°42' E 134°50'0 0.0
2018-Feb-16 10:26N 34°42' E 134°50'0 0.1
2018-Feb-16 10:00N 34°42' E 134°50'4 8.7
2018-Feb-16 09:30N 34°38' E 134°52'611.3
2018-Feb-16 09:00N 34°38' E 134°59'510.0
2018-Feb-16 08:31N 34°36' E 135°04'611.2
2018-Feb-16 08:01N 34°36' E 135°11'611.1
2018-Feb-16 07:30N 34°36' E 135°18'510.7
2018-Feb-16 07:00N 34°39' E 135°24'2 4.2
2018-Feb-16 06:28N 34°40' E 135°25'0 0.0
2018-Feb-16 05:58N 34°40' E 135°25'0 0.0
2018-Feb-16 05:28N 34°40' E 135°25'0 0.0
2018-Feb-16 04:52N 34°40' E 135°25'0 0.0
2018-Feb-16 04:28N 34°40' E 135°25'0 0.0
2018-Feb-16 03:58N 34°40' E 135°25'0 0.0
2018-Feb-16 03:28N 34°40' E 135°25'0 0.0
2018-Feb-16 02:58N 34°40' E 135°25'0 0.0
2018-Feb-16 02:28N 34°40' E 135°25'0 0.0
2018-Feb-16 01:58N 34°40' E 135°25'0 0.0
2018-Feb-16 01:28N 34°40' E 135°25'0 0.0
2018-Feb-16 00:58N 34°40' E 135°25'0 0.0
2018-Feb-16 00:28N 34°40' E 135°25'3 6.9
2018-Feb-16 00:01N 34°38' E 135°23'510.4
2018-Feb-15 23:31N 34°36' E 135°17'510.4
2018-Feb-15 23:01N 34°35' E 135°11'510.4
2018-Feb-15 22:30N 34°35' E 135°04'4 7.4
2018-Feb-15 22:00N 34°37' E 135°01'4 8.2
2018-Feb-15 21:30N 34°36' E 134°56'5 9.1
2018-Feb-15 21:00N 34°38' E 134°51'5 9.1
2018-Feb-15 20:30N 34°42' E 134°48'1 0.1
2018-Feb-15 11:01N 34°43' E 134°48'0 7.2
2018-Feb-15 11:00N 34°43' E 134°48'5 9.0
2018-Feb-15 10:30N 34°43' E 134°43'0 0.1
2018-Feb-15 07:42N 34°43' E 134°43'0 0.0
2018-Feb-15 07:15N 34°43' E 134°43'0 0.0
2018-Feb-15 06:57N 34°43' E 134°43'0 0.0
2018-Feb-15 06:21N 34°43' E 134°43'0 0.0
2018-Feb-15 05:51N 34°43' E 134°43'0 0.0
2018-Feb-15 05:21N 34°43' E 134°43'0 0.0
2018-Feb-15 04:15N 34°43' E 134°43'0 0.0
2018-Feb-15 03:57N 34°43' E 134°43'0 0.0
2018-Feb-15 03:27N 34°43' E 134°43'0 0.0
2018-Feb-15 02:57N 34°43' E 134°43'  

Dump ship's entire track history